Aviation Digital Data Service (ADDS)

Output produced by METARs form (1352 UTC 01 August 2014)
found at http://www.aviationweather.gov/adds/metars/
 
KAOO 011253Z AUTO 00000KT 4SM BR CLR 18/17 A3021 RMK AO2 SLP223 T01780167
KAOO 011218Z AUTO 00000KT 3SM BR CLR 16/16 A3020 RMK AO2 T01610156
KAOO 011201Z AUTO 00000KT 2SM BR CLR 16/16 A3021 RMK AO2 T01610156
KAOO 011153Z AUTO 00000KT 1 3/4SM BR CLR 16/15 A3020 RMK AO2 SLP222 T01560150 10161 20128 53013
KAOO 011144Z AUTO 00000KT 2SM BR CLR 16/15 A3020 RMK AO2 T01560150
KAOO 011105Z AUTO 00000KT 1 3/4SM BR CLR 14/13 A3019 RMK AO2 T01390133 $
KAOO 011053Z AUTO 00000KT 2 1/2SM BR CLR 14/13 A3019 RMK AO2 SLP218 T01390133 $
KAOO 011041Z AUTO 00000KT 2SM BR CLR 14/13 A3019 RMK AO2 T01390133 $
KAOO 011027Z AUTO 00000KT 1 3/4SM BR FEW100 13/13 A3018 RMK AO2 T01330133 $
KAOO 010953Z AUTO 00000KT 2SM BR BKN100 14/14 A3018 RMK AO2 SLP212 T01440139 $
KAOO 010943Z AUTO 00000KT 1 3/4SM BR OVC100 13/13 A3018 RMK AO2 T01280128 $
KAOO 010936Z AUTO 00000KT 2SM BR BKN095 13/13 A3018 RMK AO2 T01330128 $
KAOO 010914Z AUTO 00000KT 3SM BR CLR 13/13 A3017 RMK AO2 T01330133 $
KAOO 010905Z AUTO 00000KT 2 1/2SM BR CLR 14/14 A3017 RMK AO2 T01440144 $
KAOO 010857Z AUTO 00000KT 1 1/4SM BR FEW005 14/14 A3017 RMK AO2 T01440139 $
KAOO 010853Z AUTO 00000KT 1/2SM FG VV005 13/13 A3016 RMK AO2 SLP208 T01330133 56003
KAOO 010842Z AUTO 00000KT 1/2SM FG VV005 14/13 A3016 RMK AO2 T01390133
KAOO 010835Z AUTO 00000KT 3/4SM BR VV005 13/13 A3017 RMK AO2 T01280128
KAOO 010833Z AUTO 00000KT 1SM BR VV004 13/13 A3017 RMK AO2 T01330133
KAOO 010830Z AUTO 00000KT 2 1/2SM BR CLR 14/14 A3017 RMK AO2 T01390139
KAOO 010813Z AUTO 00000KT 1 1/2SM BR CLR 14/14 A3017 RMK AO2 T01390139
KAOO 010753Z AUTO 00000KT 3SM BR CLR 14/14 A3017 RMK AO2 SLP209 T01440144
KAOO 010653Z AUTO 00000KT 6SM BR CLR 15/14 A3017 RMK AO2 SLP208 T01500139
KAOO 010553Z AUTO 00000KT 6SM BR CLR 15/14 A3017 RMK AO2 SLP211 T01500144 10222 20150 50004
KAOO 010453Z AUTO 00000KT 7SM CLR 16/14 A3018 RMK AO2 SLP213 T01560144 402560111
KAOO 010353Z AUTO 00000KT 6SM BR CLR 15/14 A3017 RMK AO2 SLP210 T01500144
KAOO 010253Z AUTO 00000KT 9SM CLR 17/15 A3016 RMK AO2 SLP208 T01670150 50009
KAOO 010153Z AUTO 00000KT 9SM CLR 17/16 A3016 RMK AO2 SLP210 T01720156
KAOO 010053Z AUTO 24004KT 10SM CLR 19/16 A3014 RMK AO2 SLP202 T01940156
KAOO 312353Z AUTO 22003KT 10SM FEW110 22/16 A3014 RMK AO2 SLP199 T02220161 10256 20222 51007
KAOO 312253Z AUTO 23004KT 10SM FEW100 24/14 A3013 RMK AO2 SLP197 T02390144
KAOO 312153Z AUTO 22011KT 10SM BKN100 25/14 A3012 RMK AO2 SLP194 T02500139
KAOO 312053Z AUTO 25012KT 10SM FEW050 SCT075 25/13 A3011 RMK AO2 SLP191 T02500133 57002
KAOO 311953Z AUTO 28006KT 10SM FEW047 SCT060 BKN100 24/14 A3011 RMK AO2 SLP191 T02440144
KAOO 311853Z AUTO 27007KT 240V300 10SM FEW042 SCT090 25/15 A3012 RMK AO2 SLP192 T02500150
KAOO 311753Z AUTO VRB06KT 10SM FEW037 24/15 A3012 RMK AO2 SLP192 T02390150 10244 20150 58004
KAOO 311653Z AUTO 23009KT 10SM FEW028 SCT034 23/16 A3013 RMK AO2 SLP194 T02280161
KAOO 311553Z AUTO 19008KT 10SM FEW036 BKN055 21/16 A3013 RMK AO2 SLP197 T02110156
KAOO 311453Z AUTO 22009KT 10SM SCT025 OVC031 20/15 A3013 RMK AO2 SLP198 T02000150 53004
KAOO 311353Z AUTO 22008KT 10SM OVC022 18/14 A3013 RMK AO2 SLP196 T01830144
KAOO 311342Z AUTO 21006KT 10SM FEW017 BKN022 18/15 A3012 RMK AO2 T01830150
KAOO 311253Z AUTO 22008KT 10SM CLR 18/15 A3012 RMK AO2 SLP195 T01780150
KAOO 311153Z AUTO 25005KT 7SM CLR 16/14 A3012 RMK AO2 SLP195 70007 T01560144 10161 20111 53008
KAOO 311053Z AUTO 24004KT 4SM BR CLR 13/13 A3011 RMK AO2 SLP192 T01280128 $
KAOO 310953Z AUTO 00000KT 3SM BR FEW090 13/12 A3009 RMK AO2 SLP186 T01280122 $
KAOO 310951Z AUTO 00000KT 3SM BR FEW090 13/12 A3009 RMK AO2 $
KAOO 310941Z AUTO 00000KT 1 3/4SM BR FEW090 12/12 A3009 RMK AO2 T01170117 $
KAOO 310853Z AUTO 00000KT 3SM BR CLR 12/12 A3008 RMK AO2 SLP184 T01220122 53001 $
KAOO 310840Z AUTO 00000KT 3SM BR CLR 13/13 A3008 RMK AO2 T01280128 $
KAOO 310837Z AUTO 00000KT 1 1/4SM BR FEW003 13/13 A3008 RMK AO2 T01280128 $
KAOO 310831Z AUTO 00000KT 3/4SM BR VV003 12/12 A3008 RMK AO2 T01220122 $
KAOO 310827Z AUTO 00000KT 1 1/2SM BR CLR 13/13 A3007 RMK AO2 T01280128 $
KAOO 310753Z AUTO 00000KT 7SM CLR 13/13 A3007 RMK AO2 SLP178 T01330128 PWINO $
KAOO 310750Z AUTO 00000KT 5SM BR CLR 13/13 A3007 RMK AO2 $
KAOO 310742Z AUTO 00000KT 2 1/2SM BR FEW001 13/13 A3007 RMK AO2 VIS 2V4 T01330128 $
KAOO 310732Z AUTO 00000KT 3SM BR SCT001 13/13 A3008 RMK AO2 T01330128 $
KAOO 310727Z AUTO 00000KT 1SM BR VV001 13/13 A3008 RMK AO2 T01330133 $
KAOO 310712Z AUTO 21003KT 1/4SM FG VV001 13/13 A3008 RMK AO2 T01330133 $
KAOO 310703Z AUTO 20005KT 3/4SM BR VV001 14/14 A3008 RMK AO2 T01390139
KAOO 310657Z AUTO 22005KT 1 3/4SM BR SCT001 14/14 A3008 RMK AO2 T01390139
KAOO 310653Z AUTO 23005KT 3SM BR FEW001 14/14 A3008 RMK AO2 SLP181 T01390139
KAOO 310553Z AUTO 00000KT 7SM SCT095 14/14 A3009 RMK AO2 SLP182 60006 T01440139 10183 20144 58001
KAOO 310453Z AUTO 20003KT 10SM BKN075 OVC090 16/14 A3009 RMK AO2 SLP184 T01560144 402280094
KAOO 310353Z AUTO 00000KT 9SM BKN090 OVC110 16/15 A3009 RMK AO2 SLP185 T01610150
KAOO 310253Z AUTO 17004KT 8SM OVC095 16/15 A3009 RMK AO2 RAE41 SLP184 P0003 60006 T01610150 50010
KAOO 310153Z AUTO 24003KT 6SM -RA BR FEW042 BKN070 OVC090 17/16 A3010 RMK AO2 RAB07 SLP188 P0003 T01720161